sensor_id;sensor_type;location;lat;lon;timestamp;P1;durP1;ratioP1;P2;durP2;ratioP2
18893;SDS011;9579;49.488;8.226;2023-12-20T00:01:59;1.00;;;1.00;;
18893;SDS011;9579;49.488;8.226;2023-12-20T00:04:49;1.17;;;1.17;;
18893;SDS011;9579;49.488;8.226;2023-12-20T00:07:36;1.50;;;1.33;;
18893;SDS011;9579;49.488;8.226;2023-12-20T00:10:23;1.27;;;1.17;;
18893;SDS011;9579;49.488;8.226;2023-12-20T00:13:11;1.00;;;1.00;;
18893;SDS011;9579;49.488;8.226;2023-12-20T00:15:58;1.13;;;1.10;;
18893;SDS011;9579;49.488;8.226;2023-12-20T00:18:45;0.90;;;0.90;;
18893;SDS011;9579;49.488;8.226;2023-12-20T00:21:34;1.00;;;1.00;;
18893;SDS011;9579;49.488;8.226;2023-12-20T00:24:21;0.93;;;0.93;;
18893;SDS011;9579;49.488;8.226;2023-12-20T00:27:08;1.10;;;1.10;;
18893;SDS011;9579;49.488;8.226;2023-12-20T00:29:56;1.10;;;1.10;;
18893;SDS011;9579;49.488;8.226;2023-12-20T00:32:43;1.10;;;1.00;;
18893;SDS011;9579;49.488;8.226;2023-12-20T00:35:31;1.00;;;1.00;;
18893;SDS011;9579;49.488;8.226;2023-12-20T00:38:20;1.00;;;1.00;;
18893;SDS011;9579;49.488;8.226;2023-12-20T00:41:08;1.07;;;1.07;;
18893;SDS011;9579;49.488;8.226;2023-12-20T00:43:55;1.00;;;1.00;;
18893;SDS011;9579;49.488;8.226;2023-12-20T00:46:43;1.00;;;1.00;;
18893;SDS011;9579;49.488;8.226;2023-12-20T00:49:31;1.10;;;1.10;;
18893;SDS011;9579;49.488;8.226;2023-12-20T00:52:18;0.93;;;0.93;;
18893;SDS011;9579;49.488;8.226;2023-12-20T00:55:09;1.10;;;1.10;;
18893;SDS011;9579;49.488;8.226;2023-12-20T00:57:56;1.00;;;1.00;;
18893;SDS011;9579;49.488;8.226;2023-12-20T01:00:46;1.10;;;1.10;;
18893;SDS011;9579;49.488;8.226;2023-12-20T01:03:33;1.20;;;1.20;;
18893;SDS011;9579;49.488;8.226;2023-12-20T01:06:21;1.10;;;1.10;;
18893;SDS011;9579;49.488;8.226;2023-12-20T01:09:08;1.63;;;1.20;;
18893;SDS011;9579;49.488;8.226;2023-12-20T01:11:57;1.20;;;1.10;;
18893;SDS011;9579;49.488;8.226;2023-12-20T01:14:44;1.20;;;1.20;;
18893;SDS011;9579;49.488;8.226;2023-12-20T01:17:33;1.20;;;1.10;;
18893;SDS011;9579;49.488;8.226;2023-12-20T01:20:21;1.00;;;1.00;;
18893;SDS011;9579;49.488;8.226;2023-12-20T01:23:08;1.03;;;1.03;;
18893;SDS011;9579;49.488;8.226;2023-12-20T01:25:55;1.20;;;1.20;;
18893;SDS011;9579;49.488;8.226;2023-12-20T01:28:46;1.20;;;1.20;;
18893;SDS011;9579;49.488;8.226;2023-12-20T01:31:33;1.00;;;1.00;;
18893;SDS011;9579;49.488;8.226;2023-12-20T01:34:20;1.10;;;1.10;;
18893;SDS011;9579;49.488;8.226;2023-12-20T01:37:07;1.10;;;1.10;;
18893;SDS011;9579;49.488;8.226;2023-12-20T01:39:55;1.20;;;1.20;;
18893;SDS011;9579;49.488;8.226;2023-12-20T01:42:44;1.20;;;1.20;;
18893;SDS011;9579;49.488;8.226;2023-12-20T01:45:32;1.20;;;1.10;;
18893;SDS011;9579;49.488;8.226;2023-12-20T01:48:21;1.20;;;1.20;;
18893;SDS011;9579;49.488;8.226;2023-12-20T01:51:08;1.20;;;1.20;;
18893;SDS011;9579;49.488;8.226;2023-12-20T01:53:58;1.30;;;1.20;;
18893;SDS011;9579;49.488;8.226;2023-12-20T01:56:46;1.10;;;1.10;;
18893;SDS011;9579;49.488;8.226;2023-12-20T01:59:35;0.90;;;0.90;;
18893;SDS011;9579;49.488;8.226;2023-12-20T02:02:24;1.40;;;1.30;;
18893;SDS011;9579;49.488;8.226;2023-12-20T02:05:14;1.20;;;1.20;;
18893;SDS011;9579;49.488;8.226;2023-12-20T02:08:02;1.03;;;1.03;;
18893;SDS011;9579;49.488;8.226;2023-12-20T02:10:51;1.10;;;1.10;;
18893;SDS011;9579;49.488;8.226;2023-12-20T02:13:38;1.10;;;1.10;;
18893;SDS011;9579;49.488;8.226;2023-12-20T02:16:25;1.30;;;1.20;;
18893;SDS011;9579;49.488;8.226;2023-12-20T02:19:14;1.10;;;1.10;;
18893;SDS011;9579;49.488;8.226;2023-12-20T02:22:07;1.03;;;1.00;;
18893;SDS011;9579;49.488;8.226;2023-12-20T02:24:55;1.10;;;1.10;;
18893;SDS011;9579;49.488;8.226;2023-12-20T02:27:42;1.83;;;1.00;;
18893;SDS011;9579;49.488;8.226;2023-12-20T02:30:30;1.03;;;1.03;;
18893;SDS011;9579;49.488;8.226;2023-12-20T02:33:17;1.10;;;1.10;;
18893;SDS011;9579;49.488;8.226;2023-12-20T02:36:04;1.23;;;1.20;;
18893;SDS011;9579;49.488;8.226;2023-12-20T02:38:54;1.23;;;1.23;;
18893;SDS011;9579;49.488;8.226;2023-12-20T02:41:42;1.30;;;1.20;;
18893;SDS011;9579;49.488;8.226;2023-12-20T02:44:29;1.00;;;1.00;;
18893;SDS011;9579;49.488;8.226;2023-12-20T02:47:16;1.10;;;1.00;;
18893;SDS011;9579;49.488;8.226;2023-12-20T02:50:04;1.00;;;1.00;;
18893;SDS011;9579;49.488;8.226;2023-12-20T02:52:52;1.10;;;1.10;;
18893;SDS011;9579;49.488;8.226;2023-12-20T02:55:41;1.10;;;1.10;;
18893;SDS011;9579;49.488;8.226;2023-12-20T02:58:28;1.03;;;1.03;;
18893;SDS011;9579;49.488;8.226;2023-12-20T03:01:16;0.90;;;0.90;;
18893;SDS011;9579;49.488;8.226;2023-12-20T03:04:03;0.97;;;0.97;;
18893;SDS011;9579;49.488;8.226;2023-12-20T03:06:50;1.10;;;1.10;;
18893;SDS011;9579;49.488;8.226;2023-12-20T03:09:38;1.20;;;1.20;;
18893;SDS011;9579;49.488;8.226;2023-12-20T03:12:26;1.23;;;1.23;;
18893;SDS011;9579;49.488;8.226;2023-12-20T03:15:14;1.03;;;1.03;;
18893;SDS011;9579;49.488;8.226;2023-12-20T03:18:05;1.00;;;1.00;;
18893;SDS011;9579;49.488;8.226;2023-12-20T03:20:52;1.10;;;1.10;;
18893;SDS011;9579;49.488;8.226;2023-12-20T03:23:40;1.10;;;1.10;;
18893;SDS011;9579;49.488;8.226;2023-12-20T03:26:27;1.07;;;1.07;;
18893;SDS011;9579;49.488;8.226;2023-12-20T03:29:18;1.30;;;1.30;;
18893;SDS011;9579;49.488;8.226;2023-12-20T03:32:08;1.10;;;1.10;;
18893;SDS011;9579;49.488;8.226;2023-12-20T03:34:56;1.50;;;1.40;;
18893;SDS011;9579;49.488;8.226;2023-12-20T03:37:44;1.33;;;1.33;;
18893;SDS011;9579;49.488;8.226;2023-12-20T03:40:31;1.50;;;1.50;;
18893;SDS011;9579;49.488;8.226;2023-12-20T03:43:19;1.37;;;1.37;;
18893;SDS011;9579;49.488;8.226;2023-12-20T03:46:09;1.50;;;1.40;;
18893;SDS011;9579;49.488;8.226;2023-12-20T03:48:57;1.57;;;1.47;;
18893;SDS011;9579;49.488;8.226;2023-12-20T03:51:45;1.60;;;1.50;;
18893;SDS011;9579;49.488;8.226;2023-12-20T03:54:32;1.70;;;1.60;;
18893;SDS011;9579;49.488;8.226;2023-12-20T03:57:21;1.73;;;1.63;;
18893;SDS011;9579;49.488;8.226;2023-12-20T04:00:09;1.70;;;1.60;;
18893;SDS011;9579;49.488;8.226;2023-12-20T04:03:00;1.83;;;1.73;;
18893;SDS011;9579;49.488;8.226;2023-12-20T04:05:47;1.80;;;1.70;;
18893;SDS011;9579;49.488;8.226;2023-12-20T04:08:35;1.70;;;1.60;;
18893;SDS011;9579;49.488;8.226;2023-12-20T04:11:22;1.70;;;1.60;;
18893;SDS011;9579;49.488;8.226;2023-12-20T04:14:09;1.70;;;1.60;;
18893;SDS011;9579;49.488;8.226;2023-12-20T04:16:57;1.70;;;1.60;;
18893;SDS011;9579;49.488;8.226;2023-12-20T04:19:46;1.77;;;1.67;;
18893;SDS011;9579;49.488;8.226;2023-12-20T04:22:35;2.10;;;2.00;;
18893;SDS011;9579;49.488;8.226;2023-12-20T04:25:22;1.90;;;1.80;;
18893;SDS011;9579;49.488;8.226;2023-12-20T04:28:13;1.80;;;1.70;;
18893;SDS011;9579;49.488;8.226;2023-12-20T04:31:00;1.80;;;1.70;;
18893;SDS011;9579;49.488;8.226;2023-12-20T04:33:48;1.80;;;1.70;;
18893;SDS011;9579;49.488;8.226;2023-12-20T04:36:38;1.80;;;1.70;;
18893;SDS011;9579;49.488;8.226;2023-12-20T04:39:25;1.80;;;1.70;;
18893;SDS011;9579;49.488;8.226;2023-12-20T04:42:13;1.70;;;1.60;;
18893;SDS011;9579;49.488;8.226;2023-12-20T04:45:00;1.83;;;1.73;;
18893;SDS011;9579;49.488;8.226;2023-12-20T04:47:48;1.80;;;1.70;;
18893;SDS011;9579;49.488;8.226;2023-12-20T04:50:35;2.00;;;1.90;;
18893;SDS011;9579;49.488;8.226;2023-12-20T04:53:25;2.40;;;2.30;;
18893;SDS011;9579;49.488;8.226;2023-12-20T04:56:13;2.03;;;1.93;;
18893;SDS011;9579;49.488;8.226;2023-12-20T04:59:00;10.53;;;9.67;;
18893;SDS011;9579;49.488;8.226;2023-12-20T05:01:47;3.33;;;3.13;;
18893;SDS011;9579;49.488;8.226;2023-12-20T05:04:37;7.67;;;7.07;;
18893;SDS011;9579;49.488;8.226;2023-12-20T05:07:24;2.47;;;2.33;;
18893;SDS011;9579;49.488;8.226;2023-12-20T05:10:13;2.50;;;2.40;;
18893;SDS011;9579;49.488;8.226;2023-12-20T05:13:01;2.10;;;2.00;;
18893;SDS011;9579;49.488;8.226;2023-12-20T05:15:48;2.87;;;2.70;;
18893;SDS011;9579;49.488;8.226;2023-12-20T05:18:36;3.90;;;3.70;;
18893;SDS011;9579;49.488;8.226;2023-12-20T05:21:23;2.40;;;2.30;;
18893;SDS011;9579;49.488;8.226;2023-12-20T05:24:11;3.07;;;2.87;;
18893;SDS011;9579;49.488;8.226;2023-12-20T05:34:38;14.43;;;12.57;;
18893;SDS011;9579;49.488;8.226;2023-12-20T05:43:07;3.70;;;3.40;;
18893;SDS011;9579;49.488;8.226;2023-12-20T06:02:34;3.40;;;3.20;;
18893;SDS011;9579;49.488;8.226;2023-12-20T06:31:29;2.97;;;2.53;;
18893;SDS011;9579;49.488;8.226;2023-12-20T06:34:18;2.60;;;2.40;;
18893;SDS011;9579;49.488;8.226;2023-12-20T06:37:05;4.03;;;2.40;;
18893;SDS011;9579;49.488;8.226;2023-12-20T06:39:52;3.50;;;2.60;;
18893;SDS011;9579;49.488;8.226;2023-12-20T06:42:40;3.30;;;2.50;;
18893;SDS011;9579;49.488;8.226;2023-12-20T06:45:27;3.20;;;2.50;;
18893;SDS011;9579;49.488;8.226;2023-12-20T06:48:16;4.33;;;2.60;;
18893;SDS011;9579;49.488;8.226;2023-12-20T06:51:03;3.30;;;2.43;;
18893;SDS011;9579;49.488;8.226;2023-12-20T06:53:50;2.77;;;2.10;;
18893;SDS011;9579;49.488;8.226;2023-12-20T06:56:38;2.27;;;2.00;;
18893;SDS011;9579;49.488;8.226;2023-12-20T06:59:25;2.43;;;2.20;;
18893;SDS011;9579;49.488;8.226;2023-12-20T07:02:12;2.60;;;2.10;;
18893;SDS011;9579;49.488;8.226;2023-12-20T07:05:01;3.30;;;2.13;;
18893;SDS011;9579;49.488;8.226;2023-12-20T07:07:48;3.27;;;1.90;;
18893;SDS011;9579;49.488;8.226;2023-12-20T07:10:35;3.40;;;1.90;;
18893;SDS011;9579;49.488;8.226;2023-12-20T07:13:26;2.40;;;2.20;;
18893;SDS011;9579;49.488;8.226;2023-12-20T07:16:13;2.67;;;2.37;;
18893;SDS011;9579;49.488;8.226;2023-12-20T07:19:01;2.23;;;2.03;;
18893;SDS011;9579;49.488;8.226;2023-12-20T07:21:50;3.43;;;2.27;;
18893;SDS011;9579;49.488;8.226;2023-12-20T07:24:38;7.50;;;5.43;;
18893;SDS011;9579;49.488;8.226;2023-12-20T07:27:25;4.53;;;2.80;;
18893;SDS011;9579;49.488;8.226;2023-12-20T07:30:13;4.83;;;2.50;;
18893;SDS011;9579;49.488;8.226;2023-12-20T07:33:00;3.03;;;2.43;;
18893;SDS011;9579;49.488;8.226;2023-12-20T07:35:48;3.03;;;2.40;;
18893;SDS011;9579;49.488;8.226;2023-12-20T07:38:38;3.50;;;2.40;;
18893;SDS011;9579;49.488;8.226;2023-12-20T07:41:27;4.20;;;2.40;;
18893;SDS011;9579;49.488;8.226;2023-12-20T07:44:14;3.40;;;2.20;;
18893;SDS011;9579;49.488;8.226;2023-12-20T07:47:02;3.37;;;2.23;;
18893;SDS011;9579;49.488;8.226;2023-12-20T07:49:49;3.90;;;2.40;;
18893;SDS011;9579;49.488;8.226;2023-12-20T07:52:39;3.17;;;2.20;;
18893;SDS011;9579;49.488;8.226;2023-12-20T07:55:34;2.53;;;2.17;;
18893;SDS011;9579;49.488;8.226;2023-12-20T07:58:22;4.07;;;2.40;;
18893;SDS011;9579;49.488;8.226;2023-12-20T08:01:10;2.60;;;1.90;;
18893;SDS011;9579;49.488;8.226;2023-12-20T08:03:57;2.93;;;2.00;;
18893;SDS011;9579;49.488;8.226;2023-12-20T08:06:44;3.53;;;2.10;;
18893;SDS011;9579;49.488;8.226;2023-12-20T08:09:31;3.93;;;2.30;;
18893;SDS011;9579;49.488;8.226;2023-12-20T08:12:21;3.70;;;2.40;;
18893;SDS011;9579;49.488;8.226;2023-12-20T08:15:08;3.00;;;2.20;;
18893;SDS011;9579;49.488;8.226;2023-12-20T08:17:56;3.90;;;2.07;;
18893;SDS011;9579;49.488;8.226;2023-12-20T08:20:44;2.93;;;1.87;;
18893;SDS011;9579;49.488;8.226;2023-12-20T08:23:33;4.60;;;2.10;;
18893;SDS011;9579;49.488;8.226;2023-12-20T08:26:21;3.30;;;1.90;;
18893;SDS011;9579;49.488;8.226;2023-12-20T08:29:12;6.10;;;2.00;;
18893;SDS011;9579;49.488;8.226;2023-12-20T08:31:59;4.90;;;2.10;;
18893;SDS011;9579;49.488;8.226;2023-12-20T08:34:46;6.40;;;2.90;;
18893;SDS011;9579;49.488;8.226;2023-12-20T08:37:35;6.07;;;2.70;;
18893;SDS011;9579;49.488;8.226;2023-12-20T08:40:22;5.97;;;2.27;;
18893;SDS011;9579;49.488;8.226;2023-12-20T08:43:09;5.10;;;2.50;;
18893;SDS011;9579;49.488;8.226;2023-12-20T08:45:58;6.43;;;2.30;;
18893;SDS011;9579;49.488;8.226;2023-12-20T08:51:55;5.93;;;2.60;;
18893;SDS011;9579;49.488;8.226;2023-12-20T08:54:42;5.97;;;2.70;;
18893;SDS011;9579;49.488;8.226;2023-12-20T08:57:30;7.17;;;2.80;;
18893;SDS011;9579;49.488;8.226;2023-12-20T09:00:19;6.37;;;2.70;;
18893;SDS011;9579;49.488;8.226;2023-12-20T09:03:11;6.00;;;2.80;;
18893;SDS011;9579;49.488;8.226;2023-12-20T09:05:58;4.93;;;2.47;;
18893;SDS011;9579;49.488;8.226;2023-12-20T09:08:46;6.63;;;2.40;;
18893;SDS011;9579;49.488;8.226;2023-12-20T09:11:33;5.70;;;2.60;;
18893;SDS011;9579;49.488;8.226;2023-12-20T09:14:22;6.70;;;3.47;;
18893;SDS011;9579;49.488;8.226;2023-12-20T09:17:09;6.87;;;3.20;;
18893;SDS011;9579;49.488;8.226;2023-12-20T09:19:59;7.37;;;3.00;;
18893;SDS011;9579;49.488;8.226;2023-12-20T09:22:46;6.03;;;2.80;;
18893;SDS011;9579;49.488;8.226;2023-12-20T09:25:33;5.37;;;2.77;;
18893;SDS011;9579;49.488;8.226;2023-12-20T09:28:20;8.10;;;3.40;;
18893;SDS011;9579;49.488;8.226;2023-12-20T09:31:08;8.13;;;3.03;;
18893;SDS011;9579;49.488;8.226;2023-12-20T09:33:55;7.73;;;3.10;;
18893;SDS011;9579;49.488;8.226;2023-12-20T09:36:44;6.33;;;2.60;;
18893;SDS011;9579;49.488;8.226;2023-12-20T09:39:32;5.33;;;2.90;;
18893;SDS011;9579;49.488;8.226;2023-12-20T09:42:21;6.57;;;2.70;;
18893;SDS011;9579;49.488;8.226;2023-12-20T09:45:16;7.03;;;2.93;;
18893;SDS011;9579;49.488;8.226;2023-12-20T09:48:07;7.57;;;2.80;;
18893;SDS011;9579;49.488;8.226;2023-12-20T09:50:59;7.03;;;2.60;;
18893;SDS011;9579;49.488;8.226;2023-12-20T09:53:49;4.57;;;2.43;;
18893;SDS011;9579;49.488;8.226;2023-12-20T09:56:39;6.30;;;2.77;;
18893;SDS011;9579;49.488;8.226;2023-12-20T09:59:32;6.93;;;2.70;;
18893;SDS011;9579;49.488;8.226;2023-12-20T10:02:20;6.20;;;2.73;;
18893;SDS011;9579;49.488;8.226;2023-12-20T10:05:15;6.63;;;2.93;;
18893;SDS011;9579;49.488;8.226;2023-12-20T10:08:05;5.83;;;2.50;;
18893;SDS011;9579;49.488;8.226;2023-12-20T10:10:54;4.87;;;2.50;;
18893;SDS011;9579;49.488;8.226;2023-12-20T10:13:48;6.50;;;2.50;;
18893;SDS011;9579;49.488;8.226;2023-12-20T10:16:35;8.27;;;3.13;;
18893;SDS011;9579;49.488;8.226;2023-12-20T10:19:23;5.80;;;2.77;;
18893;SDS011;9579;49.488;8.226;2023-12-20T10:22:12;3.93;;;2.47;;
18893;SDS011;9579;49.488;8.226;2023-12-20T10:24:59;7.47;;;2.80;;
18893;SDS011;9579;49.488;8.226;2023-12-20T10:27:49;6.43;;;2.87;;
18893;SDS011;9579;49.488;8.226;2023-12-20T10:30:37;5.10;;;2.53;;
18893;SDS011;9579;49.488;8.226;2023-12-20T10:33:25;4.67;;;2.40;;
18893;SDS011;9579;49.488;8.226;2023-12-20T10:36:13;6.03;;;2.57;;
18893;SDS011;9579;49.488;8.226;2023-12-20T10:39:01;5.30;;;2.83;;
18893;SDS011;9579;49.488;8.226;2023-12-20T10:41:49;4.57;;;2.67;;
18893;SDS011;9579;49.488;8.226;2023-12-20T10:44:38;5.03;;;2.77;;
18893;SDS011;9579;49.488;8.226;2023-12-20T10:47:25;7.13;;;3.17;;
18893;SDS011;9579;49.488;8.226;2023-12-20T10:50:13;4.60;;;2.30;;
18893;SDS011;9579;49.488;8.226;2023-12-20T10:53:01;5.70;;;2.83;;
18893;SDS011;9579;49.488;8.226;2023-12-20T10:55:55;5.90;;;2.70;;
18893;SDS011;9579;49.488;8.226;2023-12-20T10:58:43;5.03;;;2.90;;
18893;SDS011;9579;49.488;8.226;2023-12-20T11:01:34;5.17;;;2.63;;
18893;SDS011;9579;49.488;8.226;2023-12-20T11:04:27;6.37;;;2.70;;
18893;SDS011;9579;49.488;8.226;2023-12-20T11:07:21;8.40;;;3.27;;
18893;SDS011;9579;49.488;8.226;2023-12-20T11:10:13;7.17;;;3.03;;
18893;SDS011;9579;49.488;8.226;2023-12-20T11:13:08;5.40;;;2.90;;
18893;SDS011;9579;49.488;8.226;2023-12-20T11:16:03;5.47;;;3.00;;
18893;SDS011;9579;49.488;8.226;2023-12-20T11:18:52;5.90;;;3.03;;
18893;SDS011;9579;49.488;8.226;2023-12-20T11:21:40;5.87;;;2.87;;
18893;SDS011;9579;49.488;8.226;2023-12-20T11:24:28;6.87;;;3.07;;
18893;SDS011;9579;49.488;8.226;2023-12-20T11:27:18;6.70;;;2.97;;
18893;SDS011;9579;49.488;8.226;2023-12-20T11:30:09;6.57;;;3.57;;
18893;SDS011;9579;49.488;8.226;2023-12-20T11:32:57;3.73;;;2.70;;
18893;SDS011;9579;49.488;8.226;2023-12-20T11:35:46;5.60;;;2.87;;
18893;SDS011;9579;49.488;8.226;2023-12-20T11:38:35;4.33;;;2.73;;
18893;SDS011;9579;49.488;8.226;2023-12-20T11:41:23;10.00;;;5.07;;
18893;SDS011;9579;49.488;8.226;2023-12-20T11:44:10;6.23;;;3.30;;
18893;SDS011;9579;49.488;8.226;2023-12-20T11:47:00;4.10;;;2.57;;
18893;SDS011;9579;49.488;8.226;2023-12-20T11:49:47;4.97;;;2.97;;
18893;SDS011;9579;49.488;8.226;2023-12-20T11:52:38;5.63;;;2.60;;
18893;SDS011;9579;49.488;8.226;2023-12-20T11:55:25;4.33;;;2.73;;
18893;SDS011;9579;49.488;8.226;2023-12-20T11:58:12;4.77;;;2.97;;
18893;SDS011;9579;49.488;8.226;2023-12-20T12:01:00;5.27;;;3.00;;
18893;SDS011;9579;49.488;8.226;2023-12-20T12:04:01;6.67;;;3.07;;
18893;SDS011;9579;49.488;8.226;2023-12-20T12:06:49;4.77;;;2.80;;
18893;SDS011;9579;49.488;8.226;2023-12-20T12:09:40;5.97;;;3.00;;
18893;SDS011;9579;49.488;8.226;2023-12-20T12:12:27;4.77;;;3.00;;
18893;SDS011;9579;49.488;8.226;2023-12-20T12:15:16;5.70;;;2.73;;
18893;SDS011;9579;49.488;8.226;2023-12-20T12:18:03;5.27;;;2.93;;
18893;SDS011;9579;49.488;8.226;2023-12-20T12:20:59;6.90;;;2.93;;
18893;SDS011;9579;49.488;8.226;2023-12-20T12:23:47;5.57;;;3.10;;
18893;SDS011;9579;49.488;8.226;2023-12-20T12:26:36;4.57;;;2.80;;
18893;SDS011;9579;49.488;8.226;2023-12-20T12:29:24;3.80;;;2.60;;
18893;SDS011;9579;49.488;8.226;2023-12-20T12:32:12;6.77;;;2.70;;
18893;SDS011;9579;49.488;8.226;2023-12-20T12:34:59;6.00;;;2.70;;
18893;SDS011;9579;49.488;8.226;2023-12-20T12:37:46;6.43;;;3.07;;
18893;SDS011;9579;49.488;8.226;2023-12-20T12:40:34;5.07;;;2.47;;
18893;SDS011;9579;49.488;8.226;2023-12-20T12:43:23;6.53;;;3.17;;
18893;SDS011;9579;49.488;8.226;2023-12-20T12:46:11;6.13;;;2.83;;
18893;SDS011;9579;49.488;8.226;2023-12-20T12:48:59;8.97;;;3.83;;
18893;SDS011;9579;49.488;8.226;2023-12-20T12:51:48;9.00;;;3.60;;
18893;SDS011;9579;49.488;8.226;2023-12-20T12:54:35;9.33;;;3.67;;
18893;SDS011;9579;49.488;8.226;2023-12-20T12:57:23;6.03;;;3.30;;
18893;SDS011;9579;49.488;8.226;2023-12-20T13:00:12;6.07;;;3.20;;
18893;SDS011;9579;49.488;8.226;2023-12-20T13:03:00;10.03;;;3.80;;
18893;SDS011;9579;49.488;8.226;2023-12-20T13:05:47;8.30;;;3.30;;
18893;SDS011;9579;49.488;8.226;2023-12-20T13:08:37;6.97;;;2.90;;
18893;SDS011;9579;49.488;8.226;2023-12-20T13:11:29;5.70;;;3.23;;
18893;SDS011;9579;49.488;8.226;2023-12-20T13:14:17;6.43;;;3.00;;
18893;SDS011;9579;49.488;8.226;2023-12-20T13:17:06;5.67;;;2.57;;
18893;SDS011;9579;49.488;8.226;2023-12-20T13:19:53;4.90;;;2.50;;
18893;SDS011;9579;49.488;8.226;2023-12-20T13:22:41;6.97;;;2.47;;
18893;SDS011;9579;49.488;8.226;2023-12-20T13:25:29;5.40;;;2.33;;
18893;SDS011;9579;49.488;8.226;2023-12-20T13:28:17;4.97;;;2.53;;
18893;SDS011;9579;49.488;8.226;2023-12-20T13:31:05;5.00;;;2.67;;
18893;SDS011;9579;49.488;8.226;2023-12-20T13:33:54;5.90;;;2.43;;
18893;SDS011;9579;49.488;8.226;2023-12-20T13:36:41;5.63;;;2.60;;
18893;SDS011;9579;49.488;8.226;2023-12-20T13:39:31;7.57;;;2.53;;
18893;SDS011;9579;49.488;8.226;2023-12-20T13:42:18;5.30;;;2.77;;
18893;SDS011;9579;49.488;8.226;2023-12-20T13:45:06;3.97;;;2.30;;
18893;SDS011;9579;49.488;8.226;2023-12-20T13:47:54;5.63;;;2.20;;
18893;SDS011;9579;49.488;8.226;2023-12-20T13:50:44;4.97;;;2.33;;
18893;SDS011;9579;49.488;8.226;2023-12-20T13:53:31;4.25;;;2.20;;
18893;SDS011;9579;49.488;8.226;2023-12-20T13:56:18;2.83;;;1.77;;
18893;SDS011;9579;49.488;8.226;2023-12-20T13:59:07;5.00;;;2.60;;
18893;SDS011;9579;49.488;8.226;2023-12-20T14:02:01;3.78;;;2.40;;
18893;SDS011;9579;49.488;8.226;2023-12-20T14:04:49;4.00;;;2.15;;
18893;SDS011;9579;49.488;8.226;2023-12-20T14:07:38;3.95;;;2.20;;
18893;SDS011;9579;49.488;8.226;2023-12-20T14:10:25;4.30;;;2.40;;
18893;SDS011;9579;49.488;8.226;2023-12-20T14:13:13;4.20;;;2.30;;
18893;SDS011;9579;49.488;8.226;2023-12-20T14:16:00;5.95;;;2.38;;
18893;SDS011;9579;49.488;8.226;2023-12-20T14:18:49;4.15;;;1.95;;
18893;SDS011;9579;49.488;8.226;2023-12-20T14:21:38;4.65;;;2.10;;
18893;SDS011;9579;49.488;8.226;2023-12-20T14:24:27;3.53;;;2.10;;
18893;SDS011;9579;49.488;8.226;2023-12-20T14:27:14;3.95;;;2.05;;
18893;SDS011;9579;49.488;8.226;2023-12-20T14:30:01;3.63;;;2.20;;
18893;SDS011;9579;49.488;8.226;2023-12-20T14:32:48;5.22;;;2.33;;
18893;SDS011;9579;49.488;8.226;2023-12-20T14:35:36;4.55;;;2.30;;
18893;SDS011;9579;49.488;8.226;2023-12-20T14:38:24;3.90;;;2.00;;
18893;SDS011;9579;49.488;8.226;2023-12-20T14:41:12;4.40;;;2.40;;
18893;SDS011;9579;49.488;8.226;2023-12-20T14:44:00;4.23;;;2.47;;
18893;SDS011;9579;49.488;8.226;2023-12-20T14:46:55;4.07;;;2.20;;
18893;SDS011;9579;49.488;8.226;2023-12-20T14:49:47;4.87;;;2.50;;
18893;SDS011;9579;49.488;8.226;2023-12-20T14:52:40;4.20;;;2.53;;
18893;SDS011;9579;49.488;8.226;2023-12-20T14:55:27;5.97;;;2.70;;
18893;SDS011;9579;49.488;8.226;2023-12-20T14:58:17;4.37;;;2.40;;
18893;SDS011;9579;49.488;8.226;2023-12-20T15:01:04;6.53;;;2.70;;
18893;SDS011;9579;49.488;8.226;2023-12-20T15:04:00;3.80;;;2.30;;
18893;SDS011;9579;49.488;8.226;2023-12-20T15:06:49;6.67;;;2.90;;
18893;SDS011;9579;49.488;8.226;2023-12-20T15:09:37;5.50;;;2.70;;
18893;SDS011;9579;49.488;8.226;2023-12-20T15:12:24;5.50;;;2.70;;
18893;SDS011;9579;49.488;8.226;2023-12-20T15:15:13;7.33;;;3.03;;
18893;SDS011;9579;49.488;8.226;2023-12-20T15:18:01;5.33;;;2.80;;
18893;SDS011;9579;49.488;8.226;2023-12-20T15:20:49;6.27;;;2.80;;
18893;SDS011;9579;49.488;8.226;2023-12-20T15:23:36;7.60;;;2.90;;
18893;SDS011;9579;49.488;8.226;2023-12-20T15:26:31;6.33;;;2.67;;
18893;SDS011;9579;49.488;8.226;2023-12-20T15:29:18;6.60;;;3.00;;
18893;SDS011;9579;49.488;8.226;2023-12-20T15:32:07;9.33;;;3.33;;
18893;SDS011;9579;49.488;8.226;2023-12-20T15:34:54;8.57;;;2.90;;
18893;SDS011;9579;49.488;8.226;2023-12-20T15:37:42;6.30;;;2.97;;
18893;SDS011;9579;49.488;8.226;2023-12-20T15:40:29;7.73;;;3.00;;
18893;SDS011;9579;49.488;8.226;2023-12-20T15:43:18;6.70;;;2.50;;
18893;SDS011;9579;49.488;8.226;2023-12-20T15:46:06;5.10;;;2.80;;
18893;SDS011;9579;49.488;8.226;2023-12-20T15:48:57;7.93;;;3.37;;
18893;SDS011;9579;49.488;8.226;2023-12-20T15:51:51;5.23;;;2.50;;
18893;SDS011;9579;49.488;8.226;2023-12-20T15:54:39;5.93;;;2.90;;
18893;SDS011;9579;49.488;8.226;2023-12-20T15:57:27;7.40;;;3.90;;
18893;SDS011;9579;49.488;8.226;2023-12-20T16:00:14;6.60;;;3.30;;
18893;SDS011;9579;49.488;8.226;2023-12-20T16:03:02;5.47;;;2.80;;
18893;SDS011;9579;49.488;8.226;2023-12-20T16:05:52;7.30;;;2.70;;
18893;SDS011;9579;49.488;8.226;2023-12-20T16:08:40;4.73;;;2.57;;
18893;SDS011;9579;49.488;8.226;2023-12-20T16:11:27;4.10;;;2.60;;
18893;SDS011;9579;49.488;8.226;2023-12-20T16:14:15;6.50;;;3.13;;
18893;SDS011;9579;49.488;8.226;2023-12-20T16:17:03;5.53;;;2.43;;
18893;SDS011;9579;49.488;8.226;2023-12-20T16:19:52;4.83;;;2.40;;
18893;SDS011;9579;49.488;8.226;2023-12-20T16:22:40;5.40;;;2.60;;
18893;SDS011;9579;49.488;8.226;2023-12-20T16:25:28;4.27;;;2.50;;
18893;SDS011;9579;49.488;8.226;2023-12-20T16:28:15;5.67;;;2.57;;
18893;SDS011;9579;49.488;8.226;2023-12-20T16:31:02;6.40;;;2.70;;
18893;SDS011;9579;49.488;8.226;2023-12-20T16:33:50;4.50;;;2.77;;
18893;SDS011;9579;49.488;8.226;2023-12-20T16:36:48;6.17;;;2.50;;
18893;SDS011;9579;49.488;8.226;2023-12-20T16:39:37;5.20;;;2.60;;
18893;SDS011;9579;49.488;8.226;2023-12-20T16:42:25;4.23;;;2.50;;
18893;SDS011;9579;49.488;8.226;2023-12-20T16:45:12;5.23;;;2.50;;
18893;SDS011;9579;49.488;8.226;2023-12-20T16:47:59;6.80;;;3.37;;
18893;SDS011;9579;49.488;8.226;2023-12-20T16:50:47;5.50;;;2.77;;
18893;SDS011;9579;49.488;8.226;2023-12-20T16:53:34;5.00;;;2.63;;
18893;SDS011;9579;49.488;8.226;2023-12-20T16:56:23;6.47;;;2.80;;
18893;SDS011;9579;49.488;8.226;2023-12-20T16:59:10;6.33;;;2.87;;
18893;SDS011;9579;49.488;8.226;2023-12-20T17:01:57;4.57;;;2.50;;
18893;SDS011;9579;49.488;8.226;2023-12-20T17:04:47;5.60;;;2.77;;
18893;SDS011;9579;49.488;8.226;2023-12-20T17:07:35;6.07;;;2.80;;
18893;SDS011;9579;49.488;8.226;2023-12-20T17:10:22;6.13;;;2.60;;
18893;SDS011;9579;49.488;8.226;2023-12-20T17:13:10;6.77;;;2.80;;
18893;SDS011;9579;49.488;8.226;2023-12-20T17:15:58;4.47;;;2.53;;
18893;SDS011;9579;49.488;8.226;2023-12-20T17:18:45;4.33;;;2.50;;
18893;SDS011;9579;49.488;8.226;2023-12-20T17:21:34;7.07;;;3.07;;
18893;SDS011;9579;49.488;8.226;2023-12-20T17:24:22;5.97;;;3.10;;
18893;SDS011;9579;49.488;8.226;2023-12-20T17:27:09;5.93;;;2.80;;
18893;SDS011;9579;49.488;8.226;2023-12-20T17:29:58;7.73;;;3.20;;
18893;SDS011;9579;49.488;8.226;2023-12-20T17:32:45;5.70;;;2.90;;
18893;SDS011;9579;49.488;8.226;2023-12-20T17:35:34;7.40;;;3.10;;
18893;SDS011;9579;49.488;8.226;2023-12-20T17:38:35;5.43;;;2.93;;
18893;SDS011;9579;49.488;8.226;2023-12-20T17:41:24;5.87;;;2.80;;
18893;SDS011;9579;49.488;8.226;2023-12-20T17:44:11;5.03;;;3.00;;
18893;SDS011;9579;49.488;8.226;2023-12-20T17:47:02;5.60;;;2.90;;
18893;SDS011;9579;49.488;8.226;2023-12-20T17:49:51;4.70;;;2.40;;
18893;SDS011;9579;49.488;8.226;2023-12-20T17:52:38;7.80;;;3.27;;
18893;SDS011;9579;49.488;8.226;2023-12-20T17:55:25;7.47;;;2.83;;
18893;SDS011;9579;49.488;8.226;2023-12-20T17:58:13;6.87;;;3.17;;
18893;SDS011;9579;49.488;8.226;2023-12-20T18:01:00;6.30;;;2.63;;
18893;SDS011;9579;49.488;8.226;2023-12-20T18:03:50;6.07;;;2.83;;
18893;SDS011;9579;49.488;8.226;2023-12-20T18:06:37;7.10;;;3.17;;
18893;SDS011;9579;49.488;8.226;2023-12-20T18:09:24;6.27;;;2.80;;